createdAt,value
2023-11-12T00:02:26.336Z,3.29
2023-11-12T00:06:34.504Z,3.27
2023-11-12T00:10:42.535Z,3.32
2023-11-12T00:14:53.504Z,3.35
2023-11-12T00:18:55.885Z,3.36
2023-11-12T00:23:03.613Z,3.21
2023-11-12T00:27:12.595Z,3.24
2023-11-12T00:31:14.205Z,3.23
2023-11-12T01:41:05.520Z,2.55
2023-11-12T01:45:20.527Z,2.56
2023-11-12T01:49:28.718Z,2.47
2023-11-12T01:53:32.125Z,2.48
2023-11-12T01:57:41.763Z,2.54
2023-11-12T02:01:50.646Z,2.40
2023-11-12T02:05:58.729Z,2.47
2023-11-12T02:10:10.232Z,2.46
2023-11-12T02:14:18.642Z,2.45
2023-11-12T02:18:26.625Z,2.49
2023-11-12T02:27:37.573Z,2.44
2023-11-12T02:31:52.546Z,2.54
2023-11-12T02:36:03.543Z,2.41
2023-11-12T02:40:19.741Z,2.63
2023-11-12T02:44:28.184Z,2.69
2023-11-12T02:49:07.509Z,2.55
2023-11-12T02:53:17.595Z,2.44
2023-11-12T02:57:22.496Z,2.44
2023-11-12T03:01:30.580Z,2.58
2023-11-12T03:05:45.525Z,2.41
2023-11-12T03:09:48.985Z,2.72
2023-11-12T03:13:59.501Z,2.64
2023-11-12T03:18:07.515Z,2.77
2023-11-12T03:22:16.557Z,2.78
2023-11-12T03:26:24.566Z,2.90
2023-11-12T03:30:32.596Z,2.84
2023-11-12T03:34:34.259Z,2.83
2023-11-12T03:52:09.402Z,3.10
2023-11-12T03:56:11.160Z,3.02
2023-11-12T04:00:21.480Z,2.99
2023-11-12T04:04:36.421Z,3.19
2023-11-12T04:08:51.261Z,3.28
2023-11-12T04:13:00.527Z,3.25
2023-11-12T04:17:15.283Z,3.28
2023-11-12T04:21:30.378Z,3.30
2023-11-12T04:25:38.177Z,3.36
2023-11-12T04:29:46.392Z,3.40
2023-11-12T04:33:54.399Z,3.40
2023-11-12T04:38:02.215Z,3.38
2023-11-12T04:42:10.783Z,3.41
2023-11-12T04:46:20.392Z,3.36
2023-11-12T04:50:28.510Z,3.38
2023-11-12T04:54:52.302Z,3.46
2023-11-12T04:59:00.820Z,3.47
2023-11-12T05:03:12.251Z,3.24
2023-11-12T05:07:14.378Z,3.26
2023-11-12T05:11:22.209Z,3.20
2023-11-12T05:15:30.309Z,3.21
2023-11-12T05:19:31.994Z,3.24
2023-11-12T05:23:41.235Z,3.04
2023-11-12T05:27:50.277Z,3.02
2023-11-12T05:32:13.348Z,2.83
2023-11-12T05:36:28.435Z,2.86
2023-11-12T05:40:36.368Z,2.85
2023-11-12T05:44:44.350Z,2.79
2023-11-12T05:48:46.011Z,2.65
2023-11-12T05:57:20.327Z,2.68
2023-11-12T06:01:22.180Z,2.67
2023-11-12T06:05:30.290Z,2.49
2023-11-12T06:09:39.326Z,2.68
2023-11-12T06:13:54.228Z,2.63
2023-11-12T06:17:56.247Z,2.62
2023-11-12T06:22:11.400Z,2.39
2023-11-12T06:26:20.231Z,2.51
2023-11-12T06:30:21.984Z,2.47
2023-11-12T06:34:30.231Z,2.32
2023-11-12T06:38:38.330Z,2.26
2023-11-12T06:42:53.210Z,2.32
2023-11-12T06:46:54.849Z,2.05
2023-11-12T06:51:54.313Z,2.25
2023-11-12T06:56:16.276Z,2.13
2023-11-12T07:00:24.912Z,2.10
2023-11-12T07:04:33.429Z,2.05
2023-11-12T07:08:35.101Z,1.99
2023-11-12T07:12:43.279Z,1.88
2023-11-12T07:16:58.239Z,1.94
2023-11-12T07:20:59.864Z,1.83
2023-11-12T07:25:08.330Z,1.94
2023-11-12T07:29:23.352Z,2.00
2023-11-12T07:33:24.981Z,1.98
2023-11-12T07:37:33.211Z,2.18
2023-11-12T07:41:49.259Z,2.27
2023-11-12T07:45:50.818Z,2.25
2023-11-12T07:49:59.281Z,2.39
2023-11-12T07:54:07.225Z,2.45
2023-11-12T07:58:15.242Z,2.50
2023-11-12T08:02:17.065Z,2.65
2023-11-12T08:06:43.223Z,2.79
2023-11-12T08:10:59.402Z,2.91
2023-11-12T08:15:01.187Z,3.09
2023-11-12T08:19:09.306Z,3.29
2023-11-12T08:23:24.333Z,3.48
2023-11-12T08:39:00.325Z,4.00
2023-11-12T08:43:10.386Z,4.07
2023-11-12T08:47:18.288Z,4.12
2023-11-12T08:51:26.338Z,4.25
2023-11-12T08:55:34.246Z,4.38
2023-11-12T08:59:37.422Z,4.50
2023-11-12T09:40:52.234Z,4.93
2023-11-12T09:45:15.512Z,4.95
2023-11-12T09:49:30.205Z,5.01
2023-11-12T09:54:05.223Z,5.08
2023-11-12T09:58:20.304Z,5.14
2023-11-12T10:02:29.293Z,5.14
2023-11-12T10:06:38.398Z,5.33
2023-11-12T10:10:49.200Z,5.23
2023-11-12T10:15:10.294Z,5.39
2023-11-12T10:19:21.266Z,5.51
2023-11-12T10:27:34.245Z,5.76
2023-11-12T10:31:45.240Z,5.93
2023-11-12T10:35:47.917Z,6.08
2023-11-12T10:39:57.274Z,6.20
2023-11-12T10:44:06.293Z,6.21
2023-11-12T10:48:11.356Z,6.36
2023-11-12T10:52:37.293Z,6.41
2023-11-12T10:56:46.420Z,6.48
2023-11-12T11:01:02.296Z,6.54
2023-11-12T11:05:06.165Z,6.47
2023-11-12T11:09:22.372Z,6.58
2023-11-12T11:13:31.473Z,6.66
2023-11-12T11:17:53.324Z,6.76
2023-11-12T11:22:29.338Z,6.87
2023-11-12T11:26:48.435Z,6.95
2023-11-12T11:31:21.295Z,7.06
2023-11-12T11:35:32.326Z,6.97
2023-11-12T11:39:54.315Z,7.18
2023-11-12T11:44:41.322Z,7.20
2023-11-12T11:48:49.092Z,7.20
2023-11-12T11:52:59.222Z,7.26
2023-11-12T11:57:09.362Z,7.32
2023-11-12T12:01:10.841Z,7.29
2023-11-12T12:05:22.441Z,7.40
2023-11-12T12:09:25.148Z,7.48
2023-11-12T12:13:41.535Z,7.57
2023-11-12T12:17:51.263Z,7.62
2023-11-12T12:21:53.429Z,7.54
2023-11-12T12:26:02.249Z,7.56
2023-11-12T12:30:10.260Z,7.74
2023-11-12T12:34:24.218Z,7.82
2023-11-12T12:38:39.304Z,7.90
2023-11-12T12:42:51.279Z,7.94
2023-11-12T12:47:14.236Z,7.97
2023-11-12T12:51:29.521Z,8.05
2023-11-12T12:55:31.550Z,8.08
2023-11-12T12:59:44.217Z,7.96
2023-11-12T13:03:53.311Z,8.03
2023-11-12T13:08:01.277Z,8.05
2023-11-12T13:12:12.309Z,7.91
2023-11-12T13:16:20.963Z,8.08
2023-11-12T13:20:36.263Z,8.08
2023-11-12T13:24:46.282Z,8.17
2023-11-12T13:28:55.129Z,8.21
2023-11-12T13:33:03.290Z,8.26
2023-11-12T13:37:12.262Z,8.36
2023-11-12T13:41:30.256Z,8.30
2023-11-12T13:45:32.294Z,8.07
2023-11-12T13:49:42.274Z,8.11
2023-11-12T13:53:51.534Z,8.07
2023-11-12T13:58:06.368Z,8.08
2023-11-12T14:02:16.255Z,7.94
2023-11-12T14:06:25.263Z,8.02
2023-11-12T14:10:50.255Z,7.80
2023-11-12T14:15:08.268Z,7.93
2023-11-12T14:19:13.437Z,7.90
2023-11-12T14:23:21.191Z,7.87
2023-11-12T14:27:29.346Z,7.93
2023-11-12T14:31:44.255Z,7.87
2023-11-12T14:35:53.297Z,7.92
2023-11-12T14:40:11.040Z,7.83
2023-11-12T14:44:19.240Z,7.79
2023-11-12T14:48:20.997Z,7.70
2023-11-12T14:56:49.191Z,7.76
2023-11-12T15:00:58.301Z,7.74
2023-11-12T15:05:00.051Z,7.68
2023-11-12T15:09:08.246Z,7.62
2023-11-12T15:13:23.314Z,7.44
2023-11-12T15:17:33.839Z,7.49
2023-11-12T15:21:42.042Z,7.40
2023-11-12T15:25:50.334Z,7.42
2023-11-12T15:29:58.259Z,7.36
2023-11-12T15:34:03.141Z,7.29
2023-11-12T15:38:19.295Z,7.20
2023-11-12T15:42:41.403Z,7.10
2023-11-12T15:46:52.506Z,6.97
2023-11-12T15:51:07.304Z,6.78
2023-11-12T15:55:25.453Z,6.84
2023-11-12T15:59:33.475Z,6.79
2023-11-12T16:03:44.466Z,6.63
2023-11-12T16:07:46.356Z,6.58
2023-11-12T16:11:54.337Z,6.57
2023-11-12T16:16:09.365Z,6.52
2023-11-12T16:20:13.392Z,6.44
2023-11-12T16:24:25.356Z,6.40
2023-11-12T16:28:40.254Z,6.46
2023-11-12T16:32:49.312Z,6.43
2023-11-12T16:37:04.396Z,6.40
2023-11-12T16:41:26.275Z,6.35
2023-11-12T16:45:43.227Z,6.35
2023-11-12T16:49:45.263Z,6.28
2023-11-12T16:53:53.256Z,6.21
2023-11-12T16:58:02.375Z,6.26
2023-11-12T17:02:11.339Z,6.16
2023-11-12T17:06:19.263Z,6.15
2023-11-12T17:10:28.257Z,6.18
2023-11-12T17:14:43.507Z,6.17
2023-11-12T17:19:05.492Z,6.07
2023-11-12T17:23:20.225Z,6.06
2023-11-12T17:27:23.654Z,5.99
2023-11-12T17:31:32.310Z,5.93
2023-11-12T17:35:40.270Z,5.99
2023-11-12T17:39:55.253Z,6.02
2023-11-12T17:44:04.281Z,5.89
2023-11-12T17:48:06.159Z,5.96
2023-11-12T17:56:41.322Z,6.03
2023-11-12T18:00:51.024Z,6.04
2023-11-12T18:04:53.914Z,5.86
2023-11-12T18:09:02.507Z,5.96
2023-11-12T18:13:22.305Z,6.01
2023-11-12T18:18:05.392Z,6.08
2023-11-12T18:22:28.298Z,6.11
2023-11-12T18:26:37.438Z,6.08
2023-11-12T18:30:48.676Z,6.14
2023-11-12T18:34:58.284Z,6.10
2023-11-12T18:39:13.438Z,6.12
2023-11-12T18:43:23.257Z,6.13
2023-11-12T18:47:25.027Z,6.09
2023-11-12T18:51:33.359Z,6.14
2023-11-12T18:55:41.433Z,6.06
2023-11-12T19:00:03.486Z,6.15
2023-11-12T19:04:25.309Z,6.09
2023-11-12T19:08:33.256Z,6.05
2023-11-12T19:12:41.310Z,5.94
2023-11-12T19:16:49.493Z,5.90
2023-11-12T19:20:58.282Z,5.78
2023-11-12T19:25:07.317Z,5.67
2023-11-12T19:29:22.279Z,5.66
2023-11-12T19:33:30.251Z,5.51
2023-11-12T19:37:52.305Z,5.41
2023-11-12T19:42:00.669Z,5.40
2023-11-12T19:46:09.401Z,5.14
2023-11-12T19:50:12.573Z,5.28
2023-11-12T19:54:28.286Z,5.18
2023-11-12T19:58:29.890Z,5.08
2023-11-12T20:02:52.137Z,5.03
2023-11-12T20:06:56.667Z,5.05
2023-11-12T20:11:08.295Z,4.92
2023-11-12T20:15:17.295Z,4.62
2023-11-12T20:19:26.293Z,4.89
2023-11-12T20:23:34.716Z,4.76
2023-11-12T20:27:43.405Z,4.70
2023-11-12T20:31:45.174Z,4.61
2023-11-12T20:35:54.307Z,4.53
2023-11-12T20:40:15.472Z,4.56
2023-11-12T20:44:17.303Z,4.37
2023-11-12T20:48:32.288Z,4.48
2023-11-12T20:52:41.276Z,4.29
2023-11-12T20:56:42.939Z,4.25
2023-11-12T21:00:51.238Z,4.36
2023-11-12T21:05:07.378Z,4.11
2023-11-12T21:09:15.285Z,4.23
2023-11-12T21:13:23.253Z,4.04
2023-11-12T21:17:24.847Z,4.06
2023-11-12T21:21:33.296Z,4.11
2023-11-12T21:25:41.294Z,3.95
2023-11-12T21:29:56.339Z,4.04
2023-11-12T21:34:04.355Z,3.95
2023-11-12T21:38:32.283Z,3.98
2023-11-12T21:42:48.594Z,3.99
2023-11-12T21:46:59.559Z,3.94
2023-11-12T21:51:07.537Z,3.93
2023-11-12T21:55:22.339Z,3.84
2023-11-12T21:59:38.232Z,3.71
2023-11-12T22:03:46.415Z,3.54
2023-11-12T22:12:34.424Z,3.59
2023-11-12T22:16:46.289Z,3.49
2023-11-12T22:20:54.239Z,3.43
2023-11-12T22:25:09.095Z,3.34
2023-11-12T22:29:15.520Z,3.35
2023-11-12T22:33:24.330Z,3.25
2023-11-12T22:37:32.256Z,3.27
2023-11-12T22:41:47.319Z,3.23
2023-11-12T22:45:55.258Z,3.17
2023-11-12T22:50:03.278Z,3.22
2023-11-12T22:54:12.491Z,3.09
2023-11-12T23:02:53.402Z,3.16
2023-11-12T23:07:11.364Z,3.30
2023-11-12T23:11:14.367Z,3.24
2023-11-12T23:15:22.260Z,3.22
2023-11-12T23:19:31.315Z,3.26
2023-11-12T23:23:33.068Z,3.37
2023-11-12T23:27:41.300Z,3.49
2023-11-12T23:31:49.440Z,3.56
2023-11-12T23:36:04.277Z,3.60
2023-11-12T23:40:22.482Z,3.56
2023-11-12T23:44:30.345Z,3.74
2023-11-12T23:48:35.037Z,3.93
2023-11-12T23:52:50.251Z,4.02
2023-11-12T23:57:05.229Z,4.09
